Time;durP1;ratioP1;P1;durP2;ratioP2;P2;SDS_P1;SDS_P2;PMS_P1;PMS_P2;Temp;Humidity;BMP_temperature;BMP_pressure;BME280_temperature;BME280_humidity;BME280_pressure;Samples;Min_cycle;Max_cycle;Signal;HPM_P1;HPM_P2
2021/06/08 00:01:16;;;;;;;10.57;9.77;;;;;;;;;;5056040;28;20484;-76
2021/06/08 00:03:42;;;;;;;10.30;9.30;;;;;;;;;;5077584;28;20423;-76
2021/06/08 00:06:08;;;;;;;9.37;8.67;;;;;;;;;;5064948;28;20431;-75
2021/06/08 00:08:34;;;;;;;10.07;9.27;;;;;;;;;;5058439;28;20495;-75
2021/06/08 00:11:00;;;;;;;9.93;9.13;;;;;;;;;;5081028;28;20479;-75
2021/06/08 00:13:26;;;;;;;9.63;8.83;;;;;;;;;;5069131;28;20443;-75
2021/06/08 00:15:52;;;;;;;10.30;9.50;;;;;;;;;;5074707;28;20460;-75
2021/06/08 00:18:18;;;;;;;10.97;10.17;;;;;;;;;;5073817;28;20415;-75
2021/06/08 00:20:44;;;;;;;12.73;11.83;;;;;;;;;;5055500;28;20497;-76
2021/06/08 00:23:10;;;;;;;13.63;12.63;;;;;;;;;;5055186;28;20408;-75
2021/06/08 00:25:38;;;;;;;13.43;12.33;;;;;;;;;;5055645;28;20407;-76
2021/06/08 00:28:04;;;;;;;14.20;13.13;;;;;;;;;;5056708;28;20415;-76
2021/06/08 00:30:31;;;;;;;14.37;13.10;;;;;;;;;;5055597;28;20502;-76
2021/06/08 00:32:57;;;;;;;14.80;13.60;;;;;;;;;;5058524;28;20755;-76
2021/06/08 00:35:25;;;;;;;16.27;14.90;;;;;;;;;;5064219;28;20415;-76
2021/06/08 00:37:51;;;;;;;18.07;16.40;;;;;;;;;;5055137;28;20470;-76
2021/06/08 00:40:17;;;;;;;17.87;16.47;;;;;;;;;;5055252;28;20804;-76
2021/06/08 00:42:45;;;;;;;15.83;14.53;;;;;;;;;;5055266;28;20424;-75
2021/06/08 00:45:11;;;;;;;18.63;17.03;;;;;;;;;;5055032;28;20411;-75
2021/06/08 00:47:37;;;;;;;18.07;16.40;;;;;;;;;;5055236;28;20415;-76
2021/06/08 00:50:04;;;;;;;17.50;16.00;;;;;;;;;;5055253;28;20742;-76
2021/06/08 00:52:30;;;;;;;16.83;15.40;;;;;;;;;;5054934;28;20426;-75
2021/06/08 00:54:56;;;;;;;18.10;16.70;;;;;;;;;;5054936;28;20411;-75
2021/06/08 00:57:22;;;;;;;17.40;16.10;;;;;;;;;;5054743;28;20919;-75
2021/06/08 00:59:48;;;;;;;17.77;16.37;;;;;;;;;;5054753;28;20785;-75
2021/06/08 01:02:15;;;;;;;16.43;15.13;;;;;;;;;;5054886;28;20943;-75
2021/06/08 01:04:41;;;;;;;17.83;16.27;;;;;;;;;;5054628;28;20492;-75
2021/06/08 01:07:07;;;;;;;17.00;15.60;;;;;;;;;;5054996;28;20428;-76
2021/06/08 01:09:33;;;;;;;15.80;14.70;;;;;;;;;;5058407;28;20464;-76
2021/06/08 01:11:59;;;;;;;16.77;15.23;;;;;;;;;;5070109;28;20439;-75
2021/06/08 01:14:25;;;;;;;17.30;15.77;;;;;;;;;;5070770;28;20415;-75
2021/06/08 01:16:51;;;;;;;15.27;14.07;;;;;;;;;;5061559;28;20414;-76
2021/06/08 01:19:18;;;;;;;16.27;14.77;;;;;;;;;;5074480;28;20733;-74
2021/06/08 01:21:44;;;;;;;15.97;14.77;;;;;;;;;;5055216;28;20439;-75
2021/06/08 01:24:10;;;;;;;14.80;13.50;;;;;;;;;;5054513;28;20734;-76
2021/06/08 01:26:36;;;;;;;16.80;15.40;;;;;;;;;;5054686;28;20418;-76
2021/06/08 01:29:04;;;;;;;14.40;13.30;;;;;;;;;;5055412;28;20518;-75
2021/06/08 01:31:31;;;;;;;15.53;14.33;;;;;;;;;;5054043;28;20940;-76
2021/06/08 01:33:58;;;;;;;16.37;14.93;;;;;;;;;;5053899;28;20466;-75
2021/06/08 01:36:24;;;;;;;14.37;13.30;;;;;;;;;;5054164;28;20419;-76
2021/06/08 01:38:51;;;;;;;17.47;16.10;;;;;;;;;;5054246;28;20495;-76
2021/06/08 01:41:25;;;;;;;16.10;14.90;;;;;;;;;;5053993;28;20977;-76
2021/06/08 01:43:52;;;;;;;17.87;16.47;;;;;;;;;;5053651;28;20499;-76
2021/06/08 01:46:18;;;;;;;17.53;15.87;;;;;;;;;;5054168;28;20408;-76
2021/06/08 01:48:45;;;;;;;18.00;16.50;;;;;;;;;;5053970;28;20436;-76
2021/06/08 01:51:14;;;;;;;18.17;16.77;;;;;;;;;;5053747;28;20435;-76
2021/06/08 01:53:43;;;;;;;18.47;16.87;;;;;;;;;;5067242;28;20957;-76
2021/06/08 01:56:13;;;;;;;16.90;15.50;;;;;;;;;;5053947;28;20435;-76
2021/06/08 01:58:58;;;;;;;16.97;15.53;;;;;;;;;;5053750;28;20455;-76
2021/06/08 02:01:27;;;;;;;18.77;16.93;;;;;;;;;;5053842;28;20467;-76
2021/06/08 02:04:01;;;;;;;17.60;16.20;;;;;;;;;;5052978;28;20495;-76
2021/06/08 02:06:32;;;;;;;18.37;16.70;;;;;;;;;;5053517;28;20436;-76
2021/06/08 02:08:58;;;;;;;16.40;15.10;;;;;;;;;;5065917;28;20473;-76
2021/06/08 02:11:46;;;;;;;18.20;16.40;;;;;;;;;;5053437;28;20431;-75
2021/06/08 02:14:23;;;;;;;15.83;14.53;;;;;;;;;;5053852;28;20412;-76
2021/06/08 02:16:51;;;;;;;17.83;16.30;;;;;;;;;;5058569;28;20510;-75
2021/06/08 02:19:19;;;;;;;16.03;14.77;;;;;;;;;;5073598;28;20450;-76
2021/06/08 02:21:48;;;;;;;17.40;16.10;;;;;;;;;;5069989;28;20442;-76
2021/06/08 02:24:21;;;;;;;17.40;15.87;;;;;;;;;;5053268;28;20415;-75
2021/06/08 02:26:47;;;;;;;17.23;15.70;;;;;;;;;;5053478;28;20865;-75
2021/06/08 02:29:15;;;;;;;15.50;14.20;;;;;;;;;;5053958;28;20904;-75
2021/06/08 02:31:45;;;;;;;15.87;14.47;;;;;;;;;;5053316;28;20447;-75
2021/06/08 02:34:12;;;;;;;16.87;15.47;;;;;;;;;;5052863;28;20411;-76
2021/06/08 02:36:39;;;;;;;15.63;14.33;;;;;;;;;;5053042;28;20769;-76
2021/06/08 02:39:06;;;;;;;15.80;14.43;;;;;;;;;;5053005;28;20459;-76
2021/06/08 02:41:32;;;;;;;15.97;14.63;;;;;;;;;;5053294;28;20442;-75
2021/06/08 02:43:59;;;;;;;16.80;15.40;;;;;;;;;;5053043;28;20407;-75
2021/06/08 02:46:25;;;;;;;14.40;13.20;;;;;;;;;;5052973;28;20415;-75
2021/06/08 02:48:52;;;;;;;15.93;14.53;;;;;;;;;;5052981;28;20784;-76
2021/06/08 02:51:21;;;;;;;15.33;13.93;;;;;;;;;;5053218;28;20438;-76
2021/06/08 02:53:47;;;;;;;15.43;14.20;;;;;;;;;;5052980;28;20412;-75
2021/06/08 02:56:13;;;;;;;15.83;14.43;;;;;;;;;;5053188;28;20399;-75
2021/06/08 02:58:40;;;;;;;15.17;13.87;;;;;;;;;;5052819;28;20869;-76
2021/06/08 03:01:06;;;;;;;14.47;13.27;;;;;;;;;;5052964;28;20442;-76
2021/06/08 03:03:37;;;;;;;15.87;14.37;;;;;;;;;;5052668;28;20765;-75
2021/06/08 03:06:08;;;;;;;15.30;13.80;;;;;;;;;;5053007;28;20520;-75
2021/06/08 03:08:45;;;;;;;16.07;14.47;;;;;;;;;;5065496;28;21341;-76
2021/06/08 03:11:14;;;;;;;17.20;15.60;;;;;;;;;;5052758;28;20435;-75
2021/06/08 03:13:40;;;;;;;16.90;15.37;;;;;;;;;;5052633;28;20770;-76
2021/06/08 03:16:08;;;;;;;16.00;14.70;;;;;;;;;;5053816;28;20425;-76
2021/06/08 03:18:35;;;;;;;14.00;12.90;;;;;;;;;;5076218;28;20456;-76
2021/06/08 03:21:09;;;;;;;15.43;14.10;;;;;;;;;;5076833;28;20531;-76
2021/06/08 03:23:37;;;;;;;15.57;14.33;;;;;;;;;;5058232;28;20407;-77
2021/06/08 03:26:04;;;;;;;14.43;13.30;;;;;;;;;;5056712;28;20402;-76
2021/06/08 03:28:31;;;;;;;15.23;13.90;;;;;;;;;;5056715;28;20946;-76
2021/06/08 03:30:58;;;;;;;15.03;13.83;;;;;;;;;;5056322;28;20423;-74
2021/06/08 03:33:25;;;;;;;14.87;13.60;;;;;;;;;;5056164;28;20411;-75
2021/06/08 03:35:52;;;;;;;13.80;12.37;;;;;;;;;;5056589;28;20418;-75
2021/06/08 03:38:18;;;;;;;14.80;13.40;;;;;;;;;;5056418;28;20499;-75
2021/06/08 03:40:44;;;;;;;12.83;11.63;;;;;;;;;;5056092;28;20435;-75
2021/06/08 03:43:11;;;;;;;14.50;13.30;;;;;;;;;;5056415;28;20400;-76
2021/06/08 03:45:37;;;;;;;13.23;12.13;;;;;;;;;;5056558;28;20399;-75
2021/06/08 03:48:03;;;;;;;13.70;12.33;;;;;;;;;;5056142;28;20403;-75
2021/06/08 03:50:30;;;;;;;13.07;11.87;;;;;;;;;;5056228;28;20466;-76
2021/06/08 03:52:56;;;;;;;14.10;12.90;;;;;;;;;;5056179;28;21328;-75
2021/06/08 03:55:23;;;;;;;13.43;12.33;;;;;;;;;;5056294;28;20411;-75
2021/06/08 03:57:53;;;;;;;14.03;12.83;;;;;;;;;;5055930;28;20441;-75
2021/06/08 04:00:21;;;;;;;13.53;12.33;;;;;;;;;;5055974;28;20458;-75
2021/06/08 04:02:47;;;;;;;13.30;11.87;;;;;;;;;;5055656;28;20415;-75
2021/06/08 04:05:14;;;;;;;12.30;11.30;;;;;;;;;;5056075;28;20456;-75
2021/06/08 04:07:43;;;;;;;12.80;11.70;;;;;;;;;;5063568;28;20425;-76
2021/06/08 04:10:14;;;;;;;12.27;11.20;;;;;;;;;;5057612;28;20418;-76
2021/06/08 04:12:40;;;;;;;12.60;11.60;;;;;;;;;;5055727;28;20419;-75
2021/06/08 04:15:07;;;;;;;12.97;11.60;;;;;;;;;;5056048;28;20415;-76
2021/06/08 04:17:33;;;;;;;13.10;11.90;;;;;;;;;;5066964;28;20468;-76
2021/06/08 04:20:00;;;;;;;12.53;11.43;;;;;;;;;;5075603;28;20498;-76
2021/06/08 04:22:29;;;;;;;12.27;11.23;;;;;;;;;;5066842;28;20514;-76
2021/06/08 04:24:56;;;;;;;12.43;11.40;;;;;;;;;;5055658;28;20407;-76
2021/06/08 04:27:29;;;;;;;12.13;10.93;;;;;;;;;;5054974;28;20407;-76
2021/06/08 04:29:56;;;;;;;12.20;11.10;;;;;;;;;;5056187;28;20410;-76
2021/06/08 04:32:22;;;;;;;12.30;11.20;;;;;;;;;;5054040;28;20980;-76
2021/06/08 04:34:52;;;;;;;13.80;12.70;;;;;;;;;;5054962;28;20403;-76
2021/06/08 04:37:19;;;;;;;12.40;11.40;;;;;;;;;;5055253;28;20904;-76
2021/06/08 04:39:45;;;;;;;12.10;11.10;;;;;;;;;;5055486;28;20463;-75
2021/06/08 04:42:12;;;;;;;12.20;11.10;;;;;;;;;;5055210;28;20438;-76
2021/06/08 04:44:41;;;;;;;11.13;10.20;;;;;;;;;;5055587;28;20400;-76
2021/06/08 04:47:07;;;;;;;11.20;10.30;;;;;;;;;;5055079;28;20412;-75
2021/06/08 04:49:33;;;;;;;11.90;10.90;;;;;;;;;;5063144;28;20411;-76
2021/06/08 04:51:59;;;;;;;10.90;9.80;;;;;;;;;;5060208;28;20786;-76
2021/06/08 04:54:25;;;;;;;11.53;10.30;;;;;;;;;;5054840;28;20408;-76
2021/06/08 04:56:51;;;;;;;11.70;10.60;;;;;;;;;;5054812;28;20478;-76
2021/06/08 04:59:19;;;;;;;11.37;10.47;;;;;;;;;;5054482;28;20977;-76
2021/06/08 05:01:46;;;;;;;12.10;11.00;;;;;;;;;;5054638;28;20923;-75
2021/06/08 05:04:14;;;;;;;12.57;11.50;;;;;;;;;;5054722;28;20434;-76
2021/06/08 05:06:48;;;;;;;13.13;11.90;;;;;;;;;;5055044;28;20439;-76
2021/06/08 05:09:17;;;;;;;12.30;11.30;;;;;;;;;;5064746;28;20422;-76
2021/06/08 05:11:46;;;;;;;11.90;10.90;;;;;;;;;;5054943;28;20766;-76
2021/06/08 05:14:14;;;;;;;14.07;12.50;;;;;;;;;;5054607;28;20407;-76
2021/06/08 05:16:41;;;;;;;12.87;11.60;;;;;;;;;;5058673;28;20419;-75
2021/06/08 05:19:08;;;;;;;13.17;11.87;;;;;;;;;;5074249;28;20482;-75
2021/06/08 05:21:36;;;;;;;12.43;11.33;;;;;;;;;;5072833;28;20430;-76
2021/06/08 05:24:02;;;;;;;12.27;11.17;;;;;;;;;;5054390;28;20419;-76
2021/06/08 05:26:28;;;;;;;12.57;11.47;;;;;;;;;;5054321;28;20438;-76
2021/06/08 05:28:54;;;;;;;13.10;12.00;;;;;;;;;;5054553;28;20485;-76
2021/06/08 05:31:20;;;;;;;12.50;11.40;;;;;;;;;;5054235;28;20466;-76
2021/06/08 05:33:47;;;;;;;12.23;11.23;;;;;;;;;;5053775;28;20533;-76
2021/06/08 05:36:13;;;;;;;12.10;10.87;;;;;;;;;;5054484;28;21091;-76
2021/06/08 05:38:42;;;;;;;11.57;10.53;;;;;;;;;;5053094;28;20462;-76
2021/06/08 05:41:12;;;;;;;11.50;10.50;;;;;;;;;;5054175;28;20465;-76
2021/06/08 05:43:39;;;;;;;13.40;12.20;;;;;;;;;;5053751;28;20427;-76
2021/06/08 05:46:05;;;;;;;12.17;11.07;;;;;;;;;;5053860;28;20446;-76
2021/06/08 05:48:32;;;;;;;11.23;10.30;;;;;;;;;;5053930;28;20408;-75
2021/06/08 05:50:58;;;;;;;11.97;10.77;;;;;;;;;;5053978;28;20432;-76
2021/06/08 05:53:25;;;;;;;11.77;10.73;;;;;;;;;;5053619;28;20495;-76
2021/06/08 05:55:52;;;;;;;12.00;10.97;;;;;;;;;;5053905;28;20502;-76
2021/06/08 05:58:25;;;;;;;12.53;11.30;;;;;;;;;;5053752;28;20469;-75
2021/06/08 06:00:51;;;;;;;11.50;10.60;;;;;;;;;;5061360;28;20487;-75
2021/06/08 06:03:18;;;;;;;11.37;10.47;;;;;;;;;;5073245;28;20438;-76
2021/06/08 06:05:44;;;;;;;12.13;11.03;;;;;;;;;;5073347;28;20436;-76
2021/06/08 06:08:11;;;;;;;11.60;10.60;;;;;;;;;;5072541;28;20418;-77
2021/06/08 06:10:38;;;;;;;11.40;10.50;;;;;;;;;;5053527;28;21011;-77
2021/06/08 06:13:06;;;;;;;11.03;10.13;;;;;;;;;;5053198;28;20420;-76
2021/06/08 06:15:32;;;;;;;10.13;9.23;;;;;;;;;;5053538;28;20434;-75
2021/06/08 06:17:58;;;;;;;11.40;10.53;;;;;;;;;;5067745;28;20425;-76
2021/06/08 06:20:25;;;;;;;11.23;10.23;;;;;;;;;;5073284;28;20462;-76
2021/06/08 06:22:51;;;;;;;11.33;10.37;;;;;;;;;;5057775;28;20415;-77
2021/06/08 06:25:17;;;;;;;12.20;11.20;;;;;;;;;;5053988;28;20869;-74
2021/06/08 06:27:43;;;;;;;10.17;9.27;;;;;;;;;;5054123;28;20408;-76
2021/06/08 06:30:11;;;;;;;10.03;9.27;;;;;;;;;;5053529;28;20489;-75
2021/06/08 06:32:37;;;;;;;10.60;9.23;;;;;;;;;;5057552;28;20419;-75
2021/06/08 06:35:04;;;;;;;10.13;9.23;;;;;;;;;;5053158;28;20415;-76
2021/06/08 06:37:30;;;;;;;10.13;9.30;;;;;;;;;;5053440;28;20765;-76
2021/06/08 06:39:57;;;;;;;10.10;9.30;;;;;;;;;;5050929;28;20535;-76
2021/06/08 06:42:24;;;;;;;10.30;9.40;;;;;;;;;;5059442;28;20431;-76
2021/06/08 06:44:51;;;;;;;9.87;9.03;;;;;;;;;;5051042;28;20508;-78
2021/06/08 06:47:18;;;;;;;10.17;9.37;;;;;;;;;;5056593;28;20437;-76
2021/06/08 06:49:44;;;;;;;10.53;9.67;;;;;;;;;;5059421;28;20786;-77
2021/06/08 06:52:10;;;;;;;10.57;9.73;;;;;;;;;;5053755;28;20955;-74
2021/06/08 06:54:36;;;;;;;10.83;9.97;;;;;;;;;;5049115;28;20415;-76
2021/06/08 06:57:02;;;;;;;10.27;9.47;;;;;;;;;;5049244;28;20908;-76
2021/06/08 06:59:29;;;;;;;11.47;10.27;;;;;;;;;;5061840;28;20499;-77
2021/06/08 07:01:55;;;;;;;10.50;9.70;;;;;;;;;;5049103;28;20439;-76
2021/06/08 07:04:24;;;;;;;9.70;8.90;;;;;;;;;;5048802;28;20416;-77
2021/06/08 07:06:52;;;;;;;9.90;9.10;;;;;;;;;;5050843;28;20463;-77
2021/06/08 07:09:23;;;;;;;19.77;16.83;;;;;;;;;;5059091;28;20428;-77
2021/06/08 07:11:50;;;;;;;10.87;9.87;;;;;;;;;;5049119;28;20435;-76
2021/06/08 07:14:16;;;;;;;8.87;8.17;;;;;;;;;;5049071;28;20423;-75
2021/06/08 07:16:42;;;;;;;10.40;9.50;;;;;;;;;;5053213;28;20427;-77
2021/06/08 07:19:08;;;;;;;8.83;8.23;;;;;;;;;;5068728;28;20489;-75
2021/06/08 07:21:34;;;;;;;9.17;8.43;;;;;;;;;;5064583;28;20437;-75
2021/06/08 07:24:01;;;;;;;9.17;8.30;;;;;;;;;;5048609;28;20411;-76
2021/06/08 07:26:29;;;;;;;11.40;10.47;;;;;;;;;;5049031;28;20481;-76
2021/06/08 07:28:55;;;;;;;9.70;8.90;;;;;;;;;;5049634;28;20428;-76
2021/06/08 07:31:30;;;;;;;10.83;9.77;;;;;;;;;;5048772;28;20452;-76
2021/06/08 07:34:03;;;;;;;9.37;8.67;;;;;;;;;;5048693;28;20414;-77
2021/06/08 07:36:37;;;;;;;12.43;9.67;;;;;;;;;;5074046;28;20877;-76
2021/06/08 07:39:11;;;;;;;9.00;8.30;;;;;;;;;;5048454;28;20478;-76
2021/06/08 07:41:37;;;;;;;8.93;8.17;;;;;;;;;;5048589;28;20440;-76
2021/06/08 07:44:05;;;;;;;9.63;8.83;;;;;;;;;;5063448;28;20413;-76
2021/06/08 07:46:32;;;;;;;9.00;8.30;;;;;;;;;;5059024;28;20418;-77
2021/06/08 07:48:58;;;;;;;10.90;10.00;;;;;;;;;;5048186;28;20422;-77
2021/06/08 07:51:26;;;;;;;8.37;7.67;;;;;;;;;;5048656;28;20492;-77
2021/06/08 07:53:52;;;;;;;9.00;8.20;;;;;;;;;;5048446;28;20426;-78
2021/06/08 07:56:18;;;;;;;9.13;8.43;;;;;;;;;;5048365;28;20419;-77
2021/06/08 07:58:44;;;;;;;8.47;7.73;;;;;;;;;;5048071;28;20454;-77
2021/06/08 08:01:11;;;;;;;8.40;7.80;;;;;;;;;;5048440;28;20451;-76
2021/06/08 08:03:39;;;;;;;9.37;8.60;;;;;;;;;;5051523;28;20411;-76
2021/06/08 08:06:07;;;;;;;8.23;7.43;;;;;;;;;;5051846;28;20597;-77
2021/06/08 08:08:34;;;;;;;11.10;8.37;;;;;;;;;;5063918;28;20424;-76
2021/06/08 08:11:01;;;;;;;8.03;7.43;;;;;;;;;;5051947;28;20435;-77
2021/06/08 08:13:31;;;;;;;11.47;7.97;;;;;;;;;;5051994;28;20446;-76
2021/06/08 08:15:57;;;;;;;7.83;7.33;;;;;;;;;;5056298;28;20763;-79
2021/06/08 08:18:24;;;;;;;8.70;7.87;;;;;;;;;;5071646;28;20728;-76
2021/06/08 08:20:53;;;;;;;8.60;7.63;;;;;;;;;;5078781;28;20497;-75
2021/06/08 08:23:19;;;;;;;8.10;7.47;;;;;;;;;;5072186;28;20599;-76
2021/06/08 08:25:45;;;;;;;7.83;7.30;;;;;;;;;;5073870;28;20525;-77
2021/06/08 08:28:12;;;;;;;7.83;7.13;;;;;;;;;;5071522;28;20421;-77
2021/06/08 08:30:38;;;;;;;8.20;7.40;;;;;;;;;;5071325;28;20438;-76
2021/06/08 08:33:05;;;;;;;7.43;6.93;;;;;;;;;;5071527;28;20907;-77
2021/06/08 08:35:36;;;;;;;7.90;7.30;;;;;;;;;;5063546;28;20458;-75
2021/06/08 08:38:02;;;;;;;7.83;7.13;;;;;;;;;;5063615;28;20529;-76
2021/06/08 08:40:28;;;;;;;7.70;7.03;;;;;;;;;;5071289;28;20565;-76
2021/06/08 08:42:54;;;;;;;8.00;7.40;;;;;;;;;;5064739;28;20423;-77
2021/06/08 08:45:21;;;;;;;7.03;6.30;;;;;;;;;;5066579;28;20430;-76
2021/06/08 08:47:48;;;;;;;7.87;7.27;;;;;;;;;;5071471;28;20492;-76
2021/06/08 08:50:15;;;;;;;8.13;7.53;;;;;;;;;;5071274;28;20557;-77
2021/06/08 08:52:57;;;;;;;7.67;7.07;;;;;;;;;;5071388;28;20763;-77
2021/06/08 08:55:27;;;;;;;7.93;7.33;;;;;;;;;;5074324;28;21199;-77
2021/06/08 08:57:54;;;;;;;6.80;6.30;;;;;;;;;;5081010;28;20403;-78
2021/06/08 09:00:22;;;;;;;7.63;6.80;;;;;;;;;;5070787;28;20462;-78
2021/06/08 09:02:48;;;;;;;7.23;6.63;;;;;;;;;;5070738;28;20919;-78
2021/06/08 09:05:14;;;;;;;6.60;6.07;;;;;;;;;;5070835;28;20415;-76
2021/06/08 09:07:40;;;;;;;6.63;6.13;;;;;;;;;;5070882;28;20484;-77
2021/06/08 09:10:09;;;;;;;7.33;6.63;;;;;;;;;;5070791;28;20441;-77
2021/06/08 09:12:36;;;;;;;7.40;6.80;;;;;;;;;;5065919;28;20426;-77
2021/06/08 09:15:03;;;;;;;6.23;5.73;;;;;;;;;;5073729;28;20478;-77
2021/06/08 09:17:30;;;;;;;6.13;5.53;;;;;;;;;;5067919;28;20564;-77
2021/06/08 09:19:56;;;;;;;6.70;6.10;;;;;;;;;;5065585;28;20474;-78
2021/06/08 09:22:23;;;;;;;6.60;6.00;;;;;;;;;;5066192;28;20556;-78
2021/06/08 09:24:55;;;;;;;6.00;5.50;;;;;;;;;;5070417;28;20434;-78
2021/06/08 09:27:30;;;;;;;6.60;6.10;;;;;;;;;;5070703;28;20402;-77
2021/06/08 09:29:56;;;;;;;6.80;6.30;;;;;;;;;;5063830;28;20413;-78
2021/06/08 09:32:28;;;;;;;7.03;6.43;;;;;;;;;;5070511;28;20430;-77
2021/06/08 09:34:58;;;;;;;6.77;6.27;;;;;;;;;;5071191;28;20420;-77
2021/06/08 09:37:43;;;;;;;5.53;5.23;;;;;;;;;;5070237;28;20414;-77
2021/06/08 09:40:15;;;;;;;6.10;5.60;;;;;;;;;;5076764;28;20470;-77
2021/06/08 09:42:41;;;;;;;5.50;5.20;;;;;;;;;;5070366;28;20446;-77
2021/06/08 09:45:10;;;;;;;6.03;5.63;;;;;;;;;;5070363;28;20414;-77
2021/06/08 09:47:36;;;;;;;5.90;5.40;;;;;;;;;;5067762;28;20466;-77
2021/06/08 09:50:22;;;;;;;7.03;6.50;;;;;;;;;;5063952;28;20475;-77
2021/06/08 09:52:48;;;;;;;5.00;4.57;;;;;;;;;;5069554;28;20414;-76
2021/06/08 09:55:14;;;;;;;5.37;5.07;;;;;;;;;;5064487;28;20764;-77
2021/06/08 09:57:40;;;;;;;5.10;4.63;;;;;;;;;;5069780;28;20414;-77
2021/06/08 10:00:08;;;;;;;5.50;5.13;;;;;;;;;;5069677;28;20462;-78
2021/06/08 10:02:44;;;;;;;5.40;5.00;;;;;;;;;;5070028;28;20822;-76
2021/06/08 10:05:18;;;;;;;4.87;4.47;;;;;;;;;;5069895;28;20495;-78
2021/06/08 10:07:44;;;;;;;5.90;5.50;;;;;;;;;;5069568;28;20414;-76
2021/06/08 10:10:12;;;;;;;4.87;4.57;;;;;;;;;;5069687;28;20425;-76
2021/06/08 10:12:55;;;;;;;6.07;4.80;;;;;;;;;;5066263;28;20422;-76
2021/06/08 10:15:21;;;;;;;5.13;4.73;;;;;;;;;;5070092;28;20415;-77
2021/06/08 10:17:47;;;;;;;4.97;4.57;;;;;;;;;;5062991;28;20427;-77
2021/06/08 10:20:20;;;;;;;6.00;4.83;;;;;;;;;;5069446;28;20877;-77
2021/06/08 10:22:47;;;;;;;5.57;5.03;;;;;;;;;;5067968;28;20419;-76
2021/06/08 10:25:13;;;;;;;5.10;4.70;;;;;;;;;;5067595;28;20982;-76
2021/06/08 10:27:39;;;;;;;4.37;4.03;;;;;;;;;;5069267;28;20415;-76
2021/06/08 10:30:06;;;;;;;4.93;4.60;;;;;;;;;;5069340;28;20422;-77
2021/06/08 10:32:33;;;;;;;4.27;3.87;;;;;;;;;;5069369;28;20468;-76
2021/06/08 10:34:59;;;;;;;4.43;4.03;;;;;;;;;;5071901;28;20430;-77
2021/06/08 10:37:26;;;;;;;4.47;4.17;;;;;;;;;;5069329;28;20873;-78
2021/06/08 10:39:54;;;;;;;4.20;3.90;;;;;;;;;;5067613;28;20466;-78
2021/06/08 10:42:20;;;;;;;4.70;4.07;;;;;;;;;;5069312;28;20430;-76
2021/06/08 10:44:46;;;;;;;4.17;3.77;;;;;;;;;;5074276;28;20479;-77
2021/06/08 10:47:53;;;;;;;4.37;4.07;;;;;;;;;;5069153;28;20436;-76
2021/06/08 10:50:28;;;;;;;4.70;4.40;;;;;;;;;;5066917;28;20421;-78
2021/06/08 10:52:58;;;;;;;4.43;4.13;;;;;;;;;;5067356;28;20497;-78
2021/06/08 10:55:28;;;;;;;4.33;4.00;;;;;;;;;;5069528;28;20468;-77
2021/06/08 10:57:54;;;;;;;4.67;4.00;;;;;;;;;;5069087;28;20410;-77
2021/06/08 11:00:27;;;;;;;3.97;3.67;;;;;;;;;;5066809;28;20462;-76
2021/06/08 11:02:59;;;;;;;4.70;3.97;;;;;;;;;;5057264;28;20410;-78
2021/06/08 11:05:44;;;;;;;3.90;3.60;;;;;;;;;;5069303;28;20525;-78
2021/06/08 11:08:10;;;;;;;4.13;3.73;;;;;;;;;;5060461;28;20469;-77
2021/06/08 11:10:44;;;;;;;4.10;3.80;;;;;;;;;;5068827;28;20437;-77
2021/06/08 11:13:16;;;;;;;3.37;3.07;;;;;;;;;;5067715;28;20410;-78
2021/06/08 11:15:48;;;;;;;3.43;3.13;;;;;;;;;;5066811;28;20418;-77
2021/06/08 11:18:21;;;;;;;4.43;3.40;;;;;;;;;;5068647;28;20429;-77
2021/06/08 11:20:49;;;;;;;3.50;3.13;;;;;;;;;;5068781;28;20574;-79
2021/06/08 11:23:33;;;;;;;3.30;3.10;;;;;;;;;;5064209;28;20459;-79
2021/06/08 11:26:00;;;;;;;3.17;2.97;;;;;;;;;;5068947;28;20438;-77
2021/06/08 11:28:49;;;;;;;3.03;2.73;;;;;;;;;;5068612;28;20472;-76
2021/06/08 11:31:16;;;;;;;3.50;3.20;;;;;;;;;;5063101;28;20449;-76
2021/06/08 11:33:46;;;;;;;3.60;3.30;;;;;;;;;;5060469;28;20414;-77
2021/06/08 11:36:18;;;;;;;4.50;3.40;;;;;;;;;;5071252;28;20406;-76
2021/06/08 11:38:45;;;;;;;3.60;3.30;;;;;;;;;;5072344;28;20417;-77
2021/06/08 11:41:12;;;;;;;4.00;3.27;;;;;;;;;;5072686;28;20882;-79
2021/06/08 11:43:38;;;;;;;4.20;3.90;;;;;;;;;;5064400;28;20490;-79
2021/06/08 11:46:11;;;;;;;3.23;2.97;;;;;;;;;;5068099;28;20425;-78
2021/06/08 11:48:38;;;;;;;3.57;3.37;;;;;;;;;;5058389;28;20411;-78
2021/06/08 11:51:25;;;;;;;3.57;3.27;;;;;;;;;;5071657;28;20418;-77
2021/06/08 11:53:57;;;;;;;3.37;3.17;;;;;;;;;;5063401;28;20433;-76
2021/06/08 11:56:40;;;;;;;4.60;4.20;;;;;;;;;;5067486;28;20410;-77
2021/06/08 11:59:07;;;;;;;4.17;3.87;;;;;;;;;;5069762;28;20855;-77
2021/06/08 12:01:38;;;;;;;4.40;4.00;;;;;;;;;;5066900;28;20438;-76
2021/06/08 12:04:04;;;;;;;5.43;5.03;;;;;;;;;;5063742;28;20414;-76
2021/06/08 12:06:48;;;;;;;5.00;4.50;;;;;;;;;;5072020;28;20434;-76
2021/06/08 12:09:17;;;;;;;4.97;4.57;;;;;;;;;;5071383;28;20414;-76
2021/06/08 12:11:43;;;;;;;4.27;3.90;;;;;;;;;;5072062;28;20550;-76
2021/06/08 12:14:09;;;;;;;4.67;4.30;;;;;;;;;;5059256;28;20428;-75
2021/06/08 12:16:35;;;;;;;4.30;3.57;;;;;;;;;;5069480;28;20501;-76
2021/06/08 12:19:06;;;;;;;4.10;3.80;;;;;;;;;;5073426;28;20856;-77
2021/06/08 12:21:32;;;;;;;3.90;3.60;;;;;;;;;;5070657;28;20440;-76
2021/06/08 12:23:59;;;;;;;3.60;3.30;;;;;;;;;;5075932;28;20409;-76
2021/06/08 12:26:25;;;;;;;3.73;3.50;;;;;;;;;;5072580;28;21004;-76
2021/06/08 12:29:02;;;;;;;3.60;3.30;;;;;;;;;;5070417;28;20466;-76
2021/06/08 12:31:29;;;;;;;4.27;3.90;;;;;;;;;;5071441;28;20442;-76
2021/06/08 12:33:55;;;;;;;3.80;3.13;;;;;;;;;;5071312;28;20511;-77
2021/06/08 12:36:21;;;;;;;9.00;4.27;;;;;;;;;;5075754;28;20795;-76
2021/06/08 12:38:48;;;;;;;4.77;3.67;;;;;;;;;;5070046;28;20470;-77
2021/06/08 12:41:14;;;;;;;4.70;3.70;;;;;;;;;;5071132;28;20958;-76
2021/06/08 12:43:48;;;;;;;4.03;3.63;;;;;;;;;;5071437;28;21050;-76
2021/06/08 12:46:24;;;;;;;3.87;3.57;;;;;;;;;;5066905;28;20418;-78
2021/06/08 12:49:04;;;;;;;3.80;3.50;;;;;;;;;;5074255;28;20414;-78
2021/06/08 12:51:34;;;;;;;4.07;3.77;;;;;;;;;;5082582;28;20436;-76
2021/06/08 12:54:00;;;;;;;4.47;4.13;;;;;;;;;;5073776;28;20441;-76
2021/06/08 12:56:27;;;;;;;4.40;4.10;;;;;;;;;;5071398;28;20422;-75
2021/06/08 12:58:53;;;;;;;4.43;3.47;;;;;;;;;;5071783;28;20422;-76
2021/06/08 13:01:19;;;;;;;3.77;3.47;;;;;;;;;;5065180;28;20420;-76
2021/06/08 13:03:46;;;;;;;3.97;3.60;;;;;;;;;;5069465;28;20411;-78
2021/06/08 13:06:13;;;;;;;3.93;3.50;;;;;;;;;;5070065;28;20796;-74
2021/06/08 13:08:43;;;;;;;4.83;4.13;;;;;;;;;;5069980;28;20501;-75
2021/06/08 13:11:26;;;;;;;4.13;3.83;;;;;;;;;;5070792;28;20484;-77
2021/06/08 13:13:52;;;;;;;4.53;3.53;;;;;;;;;;5068077;28;20418;-74
2021/06/08 13:16:28;;;;;;;5.17;3.67;;;;;;;;;;5065895;28;20442;-75
2021/06/08 13:18:54;;;;;;;4.40;3.40;;;;;;;;;;5083742;28;20453;-76
2021/06/08 13:21:33;;;;;;;3.40;3.10;;;;;;;;;;5070634;28;20434;-76
2021/06/08 13:24:13;;;;;;;3.70;3.40;;;;;;;;;;5061140;28;20451;-75
2021/06/08 13:26:39;;;;;;;25.07;22.80;;;;;;;;;;5070166;28;20453;-76
2021/06/08 13:29:17;;;;;;;5.37;4.87;;;;;;;;;;5070224;28;20456;-75
2021/06/08 13:31:43;;;;;;;3.03;2.73;;;;;;;;;;5068072;28;20970;-76
2021/06/08 13:34:19;;;;;;;3.13;2.77;;;;;;;;;;5070182;28;20453;-76
2021/06/08 13:36:45;;;;;;;3.53;3.00;;;;;;;;;;5071809;28;20430;-77
2021/06/08 13:39:14;;;;;;;2.90;2.70;;;;;;;;;;5070057;28;20454;-77
2021/06/08 13:41:40;;;;;;;3.03;2.73;;;;;;;;;;5068702;28;20442;-76
2021/06/08 13:44:11;;;;;;;2.80;2.60;;;;;;;;;;5066231;28;20767;-77
2021/06/08 13:46:37;;;;;;;4.27;3.97;;;;;;;;;;5070425;28;20421;-77
2021/06/08 13:49:04;;;;;;;3.13;2.80;;;;;;;;;;5069937;28;20457;-76
2021/06/08 13:51:32;;;;;;;2.83;2.60;;;;;;;;;;5064264;28;20507;-76
2021/06/08 13:54:11;;;;;;;3.17;2.60;;;;;;;;;;5060985;28;20426;-76
2021/06/08 13:56:43;;;;;;;2.67;2.47;;;;;;;;;;5070025;28;20469;-77
2021/06/08 14:01:56;;;;;;;2.60;2.40;;;;;;;;;;5069872;28;20536;-76
2021/06/08 14:04:23;;;;;;;4.70;2.97;;;;;;;;;;5069676;28;20493;-76
2021/06/08 14:06:50;;;;;;;4.00;3.60;;;;;;;;;;5068815;28;20422;-76
2021/06/08 14:09:18;;;;;;;2.90;2.70;;;;;;;;;;5069409;28;20418;-76
2021/06/08 14:11:47;;;;;;;2.53;2.33;;;;;;;;;;5069614;28;20434;-76
2021/06/08 14:14:15;;;;;;;3.00;2.67;;;;;;;;;;5069397;28;20421;-76
2021/06/08 14:16:46;;;;;;;2.63;2.43;;;;;;;;;;5069301;28;20919;-76
2021/06/08 14:19:14;;;;;;;2.30;2.10;;;;;;;;;;5069312;28;20458;-76
2021/06/08 14:21:40;;;;;;;3.77;2.80;;;;;;;;;;5066828;28;20451;-76
2021/06/08 14:24:07;;;;;;;2.73;2.20;;;;;;;;;;5068222;28;20441;-75
2021/06/08 14:26:35;;;;;;;2.40;2.20;;;;;;;;;;5069107;28;20406;-76
2021/06/08 14:29:01;;;;;;;3.03;2.10;;;;;;;;;;5068566;28;20518;-76
2021/06/08 14:31:29;;;;;;;2.97;2.67;;;;;;;;;;5069211;28;20434;-76
2021/06/08 14:33:55;;;;;;;3.13;2.80;;;;;;;;;;5068842;28;20411;-76
2021/06/08 14:36:21;;;;;;;5.10;4.70;;;;;;;;;;5068619;28;20415;-76
2021/06/08 14:38:47;;;;;;;2.70;2.47;;;;;;;;;;5049228;28;20503;-76
2021/06/08 14:41:13;;;;;;;2.57;2.37;;;;;;;;;;5049203;28;20431;-76